48IS weather

P.J. Killian Airport
Lexington, Illinois, United States

Public forecast

Using degrees Fahrenheit for public forecast. Weather courtesy of forecast.io.

METAR (pilot weather report)

Closest report is Central Illinois Regional Airport at Bloomington-Normal, 8.4 nm (15.6 km) SSW. Retrieved 2019/08/20 01:56 UTC (57 minutes ago):

KBMI 200156Z 20006KT 10SM CLR 26/23 A3003 RMK AO2 SLP157 T02560233

TAF (pilot weather forecast)

Forecast is more than 12 hours old.

Closest forecast is Central Illinois Regional Airport at Bloomington-Normal, 8.4 nm (15.6 km) SSW. Retrieved 2019/08/19 00:40 UTC (1 day ago):

TAF KBMI 192338Z 2000/2024 VRB05KT P6SM SKC TEMPO 2009/2013 3SM BR FM201500 16010KT P6SM VCTS BKN025CB TEMPO 2015/2017 3SM TSRA BR BKN012CB FM201800 20008KT P6SM SCT120 BKN250